Time;durP1;ratioP1;P1;durP2;ratioP2;P2;SDS_P1;SDS_P2;PMS_P1;PMS_P2;Temp;Humidity;BMP_temperature;BMP_pressure;BME280_temperature;BME280_humidity;BME280_pressure;Samples;Min_cycle;Max_cycle;Signal;HPM_P1;HPM_P2
2023/10/25 00:02:12;;;;;;;27.62;7.07;;;;;;;17.00;82.31;97705.06;4450968;32;34390;-84
2023/10/25 00:04:40;;;;;;;24.50;8.27;;;;;;;17.23;81.55;97708.59;4450117;32;34187;-83
2023/10/25 00:07:08;;;;;;;30.58;7.47;;;;;;;17.12;82.11;97701.16;4451112;32;34280;-82
2023/10/25 00:09:35;;;;;;;34.67;7.95;;;;;;;17.18;82.01;97697.44;4450476;32;34923;-83
2023/10/25 00:12:03;;;;;;;27.87;7.03;;;;;;;17.25;81.55;97685.81;4447554;32;31718;-83
2023/10/25 00:14:31;;;;;;;21.58;6.18;;;;;;;17.42;80.93;97687.78;4460704;32;33816;-84
2023/10/25 00:16:58;;;;;;;23.62;7.28;;;;;;;17.39;81.43;97670.44;4463274;32;33878;-83
2023/10/25 00:19:26;;;;;;;25.95;6.12;;;;;;;17.57;80.21;97678.47;4457858;32;34762;-84
2023/10/25 00:21:53;;;;;;;28.52;5.40;;;;;;;17.64;79.98;97672.09;4462636;32;33704;-83
2023/10/25 00:24:21;;;;;;;28.95;7.78;;;;;;;17.80;78.93;97670.59;4463199;32;33907;-84
2023/10/25 00:26:48;;;;;;;28.17;5.60;;;;;;;17.73;78.92;97674.38;4465308;32;35020;-84
2023/10/25 00:29:16;;;;;;;24.92;6.87;;;;;;;17.75;79.39;97669.94;4442282;32;34242;-84
2023/10/25 00:31:44;;;;;;;24.77;6.28;;;;;;;17.58;80.14;97667.06;4464949;32;33522;-83
2023/10/25 00:34:12;;;;;;;31.30;7.20;;;;;;;17.58;80.13;97667.06;4462151;32;34090;-83
2023/10/25 00:36:39;;;;;;;26.25;6.95;;;;;;;17.77;79.15;97657.62;4457745;32;34195;-84
2023/10/25 00:39:07;;;;;;;26.95;6.82;;;;;;;17.70;79.34;97651.75;4466051;32;34208;-84
2023/10/25 00:41:35;;;;;;;19.50;5.55;;;;;;;17.72;79.40;97659.53;4449256;32;33884;-83
2023/10/25 00:44:02;;;;;;;29.20;6.12;;;;;;;18.04;78.14;97654.81;4458471;32;34302;-84
2023/10/25 00:46:30;;;;;;;23.27;6.72;;;;;;;17.87;78.56;97651.06;4460392;32;33968;-84
2023/10/25 00:48:59;;;;;;;23.90;5.70;;;;;;;17.89;78.07;97656.28;4456141;32;34764;-84
2023/10/25 00:51:28;;;;;;;28.55;6.18;;;;;;;17.71;79.05;97652.59;4435931;32;33759;-84
2023/10/25 00:53:56;;;;;;;26.05;6.95;;;;;;;17.69;79.16;97651.78;4442739;32;33802;-83
2023/10/25 00:56:25;;;;;;;29.30;7.10;;;;;;;17.82;78.82;97645.19;4459502;32;34647;-84
2023/10/25 00:58:56;;;;;;;26.60;6.32;;;;;;;17.80;78.75;97631.25;4450866;32;34601;-82
2023/10/25 01:01:26;;;;;;;34.75;7.80;;;;;;;17.72;79.13;97635.94;4440135;32;34432;-83
2023/10/25 01:03:54;;;;;;;26.52;6.37;;;;;;;17.55;79.88;97635.78;4443473;32;34400;-83
2023/10/25 01:06:22;;;;;;;30.25;6.50;;;;;;;17.62;79.83;97632.00;4456185;32;34000;-83
2023/10/25 01:08:51;;;;;;;30.62;6.82;;;;;;;17.77;79.15;97609.56;4455913;32;34009;-84
2023/10/25 01:11:18;;;;;;;26.67;6.87;;;;;;;17.54;80.39;97597.38;4451686;32;34546;-83
2023/10/25 01:13:46;;;;;;;24.27;6.30;;;;;;;17.66;79.75;97591.66;4451125;32;33434;-83
2023/10/25 01:16:14;;;;;;;23.83;7.07;;;;;;;17.70;79.66;97577.50;4452176;32;34287;-81
2023/10/25 01:18:41;;;;;;;25.05;6.55;;;;;;;17.55;80.36;97580.75;4455158;32;34340;-81
2023/10/25 01:21:09;;;;;;;23.33;6.12;;;;;;;17.79;79.38;97565.81;4461952;32;33798;-83
2023/10/25 01:23:36;;;;;;;26.65;6.65;;;;;;;17.91;78.27;97555.66;4449984;32;34746;-83
2023/10/25 01:26:04;;;;;;;25.58;6.45;;;;;;;17.84;78.74;97566.47;4462226;32;34920;-83
2023/10/25 01:28:31;;;;;;;23.75;6.28;;;;;;;17.95;78.02;97545.88;4466514;32;34124;-83
2023/10/25 01:31:01;;;;;;;28.15;6.97;;;;;;;17.82;78.53;97566.53;4457034;32;33807;-84
2023/10/25 01:33:28;;;;;;;24.30;6.50;;;;;;;17.74;78.70;97545.84;4466465;32;33785;-83
2023/10/25 01:35:56;;;;;;;26.10;6.60;;;;;;;17.81;78.36;97549.13;4460309;32;34840;-83
2023/10/25 01:38:24;;;;;;;21.70;6.82;;;;;;;17.84;78.14;97541.13;4459075;32;35004;-84
2023/10/25 01:40:51;;;;;;;25.88;6.72;;;;;;;17.85;78.03;97545.44;4457641;32;32819;-84
2023/10/25 01:43:20;;;;;;;21.52;6.35;;;;;;;17.99;77.60;97548.34;4452236;32;34623;-83
2023/10/25 01:45:50;;;;;;;20.58;6.70;;;;;;;17.91;77.79;97547.78;4453053;32;35019;-83
2023/10/25 01:48:17;;;;;;;25.55;6.87;;;;;;;17.86;78.11;97544.53;4464939;32;34263;-84
2023/10/25 01:50:44;;;;;;;24.17;6.20;;;;;;;17.94;77.81;97539.78;4451985;32;33862;-84
2023/10/25 01:53:12;;;;;;;29.30;7.43;;;;;;;17.99;77.52;97550.97;4458249;32;33835;-84
2023/10/25 01:55:40;;;;;;;23.87;6.43;;;;;;;17.74;78.46;97548.47;4458272;32;33896;-84
2023/10/25 01:58:08;;;;;;;24.87;7.15;;;;;;;17.64;78.94;97547.16;4452280;32;34256;-84
2023/10/25 02:00:38;;;;;;;25.77;7.30;;;;;;;17.86;78.01;97531.41;4453251;32;33524;-83
2023/10/25 02:03:05;;;;;;;19.62;6.05;;;;;;;17.77;78.55;97526.56;4453211;32;33900;-83
2023/10/25 02:05:33;;;;;;;22.75;6.32;;;;;;;17.70;78.56;97531.19;4451641;32;34531;-82
2023/10/25 02:08:01;;;;;;;21.42;6.93;;;;;;;17.84;78.09;97528.03;4451993;32;33494;-83
2023/10/25 02:10:28;;;;;;;25.15;7.05;;;;;;;17.96;77.31;97535.34;4458415;32;33159;-83
2023/10/25 02:12:56;;;;;;;19.02;6.00;;;;;;;17.90;77.82;97530.34;4462207;32;33536;-83
2023/10/25 02:15:23;;;;;;;22.05;6.70;;;;;;;17.99;77.05;97534.34;4461476;32;34003;-83
2023/10/25 02:17:51;;;;;;;20.67;5.87;;;;;;;17.98;77.31;97536.12;4451306;32;33891;-82
2023/10/25 02:20:19;;;;;;;22.95;7.62;;;;;;;18.09;76.89;97532.19;4451550;32;34537;-83
2023/10/25 02:22:46;;;;;;;23.62;8.50;;;;;;;18.02;76.97;97534.22;4451586;32;33385;-83
2023/10/25 02:25:14;;;;;;;19.55;6.80;;;;;;;18.09;76.61;97525.16;4451778;32;33886;-84
2023/10/25 02:27:41;;;;;;;19.87;7.00;;;;;;;18.13;76.43;97518.03;4451620;32;34794;-84
2023/10/25 02:30:09;;;;;;;18.55;7.12;;;;;;;17.97;76.90;97513.44;4464657;32;34645;-82
2023/10/25 02:32:46;;;;;;;17.30;7.80;;;;;;;17.95;77.06;97514.41;4464913;32;34845;-85
2023/10/25 02:35:15;;;;;;;22.42;8.82;;;;;;;18.05;77.01;97515.72;4453472;32;33917;-84
2023/10/25 02:37:46;;;;;;;22.50;7.22;;;;;;;18.05;76.67;97513.12;4462641;32;34200;-82
2023/10/25 02:40:14;;;;;;;19.42;7.60;;;;;;;17.98;77.08;97509.91;4451423;32;33627;-84
2023/10/25 02:42:44;;;;;;;14.27;7.43;;;;;;;18.08;76.71;97509.50;4451681;32;33782;-84
2023/10/25 02:45:12;;;;;;;16.62;6.90;;;;;;;18.00;77.05;97507.22;4451836;32;34180;-84
2023/10/25 02:47:39;;;;;;;11.27;5.97;;;;;;;18.06;76.66;97506.94;4451489;32;35054;-84
2023/10/25 02:50:07;;;;;;;12.40;6.87;;;;;;;18.15;76.25;97503.94;4451313;32;33241;-84
2023/10/25 02:52:35;;;;;;;8.90;5.60;;;;;;;17.87;77.61;97511.28;4451720;32;33661;-84
2023/10/25 02:55:02;;;;;;;11.23;5.45;;;;;;;17.74;78.13;97500.44;4451493;32;34071;-83
2023/10/25 02:57:30;;;;;;;6.80;4.35;;;;;;;17.82;78.29;97494.91;4451536;32;34100;-84
2023/10/25 02:59:58;;;;;;;6.90;4.40;;;;;;;17.97;77.35;97479.38;4451169;32;34654;-84
2023/10/25 03:02:25;;;;;;;7.70;4.00;;;;;;;17.28;80.77;97481.41;4451110;32;33995;-83
2023/10/25 03:04:53;;;;;;;6.15;3.92;;;;;;;17.38;80.02;97484.50;4451251;32;34868;-85
2023/10/25 03:07:20;;;;;;;6.22;3.55;;;;;;;17.50;79.58;97483.97;4451035;32;33884;-85
2023/10/25 03:09:48;;;;;;;5.82;3.83;;;;;;;17.57;79.58;97477.56;4451418;32;34215;-84
2023/10/25 03:12:15;;;;;;;6.15;3.60;;;;;;;17.51;79.68;97483.09;4451448;32;33431;-83
2023/10/25 03:14:43;;;;;;;6.15;3.28;;;;;;;17.64;79.47;97475.53;4451411;32;34056;-85
2023/10/25 03:17:10;;;;;;;6.60;3.80;;;;;;;17.61;79.24;97487.00;4464154;32;34967;-85
2023/10/25 03:19:38;;;;;;;6.93;3.85;;;;;;;17.28;81.32;97507.63;4454988;32;33477;-83
2023/10/25 03:22:06;;;;;;;7.57;3.37;;;;;;;17.58;79.74;97504.62;4451871;32;35177;-85
2023/10/25 03:24:34;;;;;;;7.32;3.00;;;;;;;16.91;83.15;97518.69;4440692;32;33766;-83
2023/10/25 03:27:01;;;;;;;8.07;3.30;;;;;;;15.88;86.27;97532.91;4459598;32;33858;-85
2023/10/25 03:29:29;;;;;;;5.97;3.42;;;;;;;15.73;86.07;97546.50;4463922;32;33402;-84
2023/10/25 03:31:58;;;;;;;5.90;3.50;;;;;;;15.01;87.79;97541.81;4464618;32;34848;-85
2023/10/25 03:34:25;;;;;;;6.60;3.80;;;;;;;15.41;85.57;97545.75;4457048;32;35133;-85
2023/10/25 03:36:53;;;;;;;6.82;4.35;;;;;;;15.49;84.68;97543.78;4461453;32;33696;-85
2023/10/25 03:39:21;;;;;;;8.60;5.80;;;;;;;14.85;87.19;97535.38;4464326;32;34479;-86
2023/10/25 03:41:48;;;;;;;9.05;6.07;;;;;;;14.75;88.17;97544.34;4444546;32;33575;-83
2023/10/25 03:44:16;;;;;;;10.70;7.55;;;;;;;14.80;87.12;97545.91;4444288;32;34150;-84
2023/10/25 03:46:44;;;;;;;9.98;7.62;;;;;;;14.90;86.11;97556.94;4451038;32;33412;-84
2023/10/25 03:49:11;;;;;;;12.15;8.40;;;;;;;14.40;87.86;97556.66;4453780;32;33269;-85
2023/10/25 03:51:39;;;;;;;12.30;8.60;;;;;;;14.90;86.21;97559.56;4466253;32;34584;-83
2023/10/25 03:54:06;;;;;;;14.80;9.77;;;;;;;14.75;86.16;97554.78;4464954;32;34596;-85
2023/10/25 03:56:34;;;;;;;11.38;9.38;;;;;;;14.76;86.81;97559.09;4451556;32;34727;-83
2023/10/25 03:59:02;;;;;;;13.38;8.93;;;;;;;14.82;86.12;97561.53;4454925;32;33588;-84
2023/10/25 04:01:29;;;;;;;12.52;9.77;;;;;;;14.95;84.77;97570.69;4458856;32;34693;-84
2023/10/25 04:03:58;;;;;;;11.88;9.07;;;;;;;14.66;87.13;97573.31;4463376;32;34169;-83
2023/10/25 04:06:25;;;;;;;13.02;9.75;;;;;;;14.64;85.98;97572.50;4462309;32;33482;-83
2023/10/25 04:08:53;;;;;;;11.85;9.43;;;;;;;14.71;86.00;97582.72;4461505;32;34707;-85
2023/10/25 04:11:20;;;;;;;14.68;9.68;;;;;;;14.72;85.61;97576.59;4466032;32;33771;-83
2023/10/25 04:13:48;;;;;;;12.90;10.45;;;;;;;15.02;83.05;97592.25;4450723;32;33645;-84
2023/10/25 04:16:15;;;;;;;13.15;10.35;;;;;;;14.24;88.39;97600.50;4456636;32;34381;-83
2023/10/25 04:18:43;;;;;;;12.80;10.57;;;;;;;14.51;87.05;97593.72;4455077;32;33409;-83
2023/10/25 04:21:11;;;;;;;13.98;10.68;;;;;;;14.06;89.40;97612.28;4458965;32;34056;-83
2023/10/25 04:23:39;;;;;;;14.38;11.40;;;;;;;14.28;88.26;97609.97;4466490;32;34924;-85
2023/10/25 04:26:12;;;;;;;15.25;11.73;;;;;;;13.91;90.40;97620.50;4454163;32;34232;-82
2023/10/25 04:28:41;;;;;;;15.43;11.68;;;;;;;14.01;89.38;97621.09;4446106;32;33718;-83
2023/10/25 04:31:10;;;;;;;14.35;10.80;;;;;;;14.50;86.45;97612.88;4440206;32;33896;-84
2023/10/25 04:33:38;;;;;;;13.25;10.95;;;;;;;14.68;84.91;97621.94;4451719;32;33908;-83
2023/10/25 04:36:07;;;;;;;13.32;10.07;;;;;;;14.23;87.11;97626.62;4444723;32;34956;-82
2023/10/25 04:38:34;;;;;;;14.45;10.68;;;;;;;14.75;83.32;97618.25;4441985;32;35031;-83
2023/10/25 04:41:02;;;;;;;12.68;10.88;;;;;;;14.37;85.88;97624.50;4444503;32;35251;-85
2023/10/25 04:43:30;;;;;;;14.20;10.98;;;;;;;14.23;86.60;97637.06;4463862;32;34195;-83
2023/10/25 04:45:59;;;;;;;12.75;10.63;;;;;;;14.03;88.76;97642.78;4456792;32;33821;-84
2023/10/25 04:48:27;;;;;;;11.30;8.38;;;;;;;14.39;85.92;97630.53;4439113;32;32920;-83
2023/10/25 04:50:54;;;;;;;12.82;8.98;;;;;;;14.03;87.77;97643.63;4455802;32;34081;-83
2023/10/25 04:53:22;;;;;;;13.18;9.32;;;;;;;14.03;88.37;97640.19;4449838;32;34246;-84
2023/10/25 04:55:50;;;;;;;11.60;9.13;;;;;;;14.24;86.38;97641.34;4454214;32;34936;-85
2023/10/25 04:58:18;;;;;;;12.35;9.20;;;;;;;14.24;85.83;97644.81;4456178;32;34315;-83
2023/10/25 05:00:47;;;;;;;11.05;8.52;;;;;;;14.36;85.37;97647.13;4463080;32;33612;-83
2023/10/25 05:03:14;;;;;;;12.82;8.63;;;;;;;14.14;85.67;97661.63;4458484;32;33731;-84
2023/10/25 05:05:42;;;;;;;10.73;8.85;;;;;;;13.73;88.66;97654.81;4457435;32;33872;-83
2023/10/25 05:08:10;;;;;;;12.75;8.57;;;;;;;13.90;87.75;97663.06;4466814;32;33691;-85
2023/10/25 05:10:38;;;;;;;12.57;8.93;;;;;;;14.00;87.58;97664.56;4452438;32;33840;-85
2023/10/25 05:13:06;;;;;;;12.68;9.05;;;;;;;14.42;83.73;97669.56;4438361;32;34112;-85
2023/10/25 05:15:37;;;;;;;11.80;9.27;;;;;;;13.97;86.64;97672.44;4453211;32;34248;-85
2023/10/25 05:18:05;;;;;;;12.18;9.38;;;;;;;14.14;85.82;97677.25;4461620;32;33851;-86
2023/10/25 05:20:33;;;;;;;11.60;9.18;;;;;;;13.94;87.09;97679.47;4438126;32;33527;-85
2023/10/25 05:23:03;;;;;;;12.43;9.20;;;;;;;14.15;85.53;97683.31;4451885;32;34056;-84
2023/10/25 05:25:31;;;;;;;12.55;9.75;;;;;;;14.32;83.51;97681.12;4459039;32;33833;-84
2023/10/25 05:28:01;;;;;;;11.90;9.70;;;;;;;14.15;84.62;97688.53;4440834;32;34529;-85
2023/10/25 05:30:29;;;;;;;15.45;10.70;;;;;;;14.37;83.42;97689.69;4452170;32;34158;-85
2023/10/25 05:33:01;;;;;;;14.32;11.65;;;;;;;13.98;84.57;97692.41;4452484;32;33983;-87
2023/10/25 05:35:29;;;;;;;14.23;12.45;;;;;;;13.87;86.14;97700.47;4447575;32;34937;-83
2023/10/25 05:37:57;;;;;;;15.07;13.07;;;;;;;13.95;85.57;97702.91;4453623;32;34680;-86
2023/10/25 05:40:26;;;;;;;16.00;13.43;;;;;;;13.97;85.29;97710.66;4452419;32;33478;-86
2023/10/25 05:42:55;;;;;;;13.88;12.48;;;;;;;13.95;85.15;97718.53;4438158;32;34288;-87
2023/10/25 05:45:23;;;;;;;15.50;13.43;;;;;;;14.17;83.23;97723.22;4438435;32;34774;-86
2023/10/25 05:47:51;;;;;;;15.27;13.70;;;;;;;14.16;83.42;97722.34;4462334;32;33858;-85
2023/10/25 05:50:19;;;;;;;15.55;13.77;;;;;;;13.83;85.52;97726.66;4467322;32;34510;-86
2023/10/25 05:52:47;;;;;;;14.85;13.35;;;;;;;13.74;86.36;97730.31;4466778;32;33934;-85
2023/10/25 05:55:15;;;;;;;16.27;14.45;;;;;;;13.85;85.36;97732.66;4452569;32;34040;-86
2023/10/25 05:57:45;;;;;;;15.95;14.00;;;;;;;13.62;86.44;97739.25;4467726;32;34488;-85
2023/10/25 06:00:14;;;;;;;16.52;14.70;;;;;;;13.73;86.46;97753.78;4452656;32;34811;-85
2023/10/25 06:02:43;;;;;;;16.17;14.57;;;;;;;13.94;85.26;97761.13;4457981;32;33965;-83
2023/10/25 06:05:12;;;;;;;13.60;12.20;;;;;;;14.02;84.20;97763.56;4450438;32;33747;-84
2023/10/25 06:07:41;;;;;;;13.73;12.32;;;;;;;13.85;83.63;97782.16;4447814;32;33896;-84
2023/10/25 06:10:09;;;;;;;13.45;12.15;;;;;;;13.95;83.34;97786.28;4461940;32;34927;-85
2023/10/25 06:12:40;;;;;;;13.98;12.57;;;;;;;13.94;83.59;97794.12;4451920;32;34941;-85
2023/10/25 06:15:09;;;;;;;13.30;11.73;;;;;;;14.30;81.48;97810.66;4453151;32;34176;-85
2023/10/25 06:17:37;;;;;;;13.82;12.23;;;;;;;14.23;81.83;97817.75;4443343;32;34209;-85
2023/10/25 06:20:05;;;;;;;14.40;12.90;;;;;;;13.76;84.08;97827.50;4463795;32;34814;-85
2023/10/25 06:22:32;;;;;;;14.52;10.85;;;;;;;13.86;83.12;97829.03;4439644;32;34258;-85
2023/10/25 06:25:00;;;;;;;13.15;11.77;;;;;;;13.97;83.19;97839.19;4453579;32;34165;-85
2023/10/25 06:27:28;;;;;;;12.18;10.88;;;;;;;13.83;83.65;97836.06;4465936;32;35135;-84
2023/10/25 06:29:55;;;;;;;13.75;11.48;;;;;;;14.25;80.75;97836.00;4458928;32;33756;-86
2023/10/25 06:32:23;;;;;;;11.65;10.45;;;;;;;14.01;82.66;97838.22;4464642;32;33675;-87
2023/10/25 06:34:50;;;;;;;13.35;11.07;;;;;;;13.91;81.79;97849.78;4465218;32;33930;-86
2023/10/25 06:37:18;;;;;;;11.70;10.55;;;;;;;13.61;84.00;97859.94;4466440;32;34401;-85
2023/10/25 06:39:46;;;;;;;15.88;11.85;;;;;;;13.90;82.33;97850.63;4467240;32;33346;-85
2023/10/25 06:42:14;;;;;;;12.15;10.70;;;;;;;13.78;83.39;97867.37;4466505;32;34140;-84
2023/10/25 06:44:42;;;;;;;12.05;10.85;;;;;;;13.92;81.81;97854.09;4437598;32;34050;-84
2023/10/25 06:47:10;;;;;;;12.00;9.70;;;;;;;14.02;82.40;97854.75;4451700;32;33519;-86
2023/10/25 06:49:38;;;;;;;10.32;9.23;;;;;;;13.38;84.37;97857.78;4452409;32;34763;-85
2023/10/25 06:52:06;;;;;;;11.25;9.57;;;;;;;13.97;81.96;97847.00;4451954;32;34178;-85
2023/10/25 06:54:34;;;;;;;11.27;9.80;;;;;;;13.66;82.90;97844.22;4451573;32;33762;-85
2023/10/25 06:57:02;;;;;;;11.82;10.20;;;;;;;14.39;80.23;97838.25;4461070;32;33734;-83
2023/10/25 06:59:30;;;;;;;10.10;8.57;;;;;;;14.16;81.30;97831.81;4451713;32;33977;-85
2023/10/25 07:02:22;;;;;;;10.82;8.30;;;;;;;13.94;81.84;97838.41;4456901;32;34165;-83
2023/10/25 07:04:58;;;;;;;9.32;8.23;;;;;;;13.95;82.06;97837.53;4467107;32;34114;-85
2023/10/25 07:07:26;;;;;;;;;;;;;;;13.76;83.43;97845.75;4454223;32;33243;-85
2023/10/25 07:09:54;;;;;;;8.38;7.45;;;;;;;14.36;79.67;97847.88;4466735;32;34139;-83
2023/10/25 07:12:22;;;;;;;8.45;7.10;;;;;;;14.69;77.17;97852.31;4467139;32;34877;-84
2023/10/25 07:14:50;;;;;;;8.85;7.55;;;;;;;14.09;80.32;97851.09;4457469;32;33896;-84
2023/10/25 07:17:18;;;;;;;10.95;9.85;;;;;;;14.30;80.46;97844.53;4451835;32;34360;-85
2023/10/25 07:19:47;;;;;;;8.10;6.97;;;;;;;14.53;78.61;97834.44;4451589;32;33596;-83
2023/10/25 07:22:14;;;;;;;10.60;7.75;;;;;;;14.49;78.71;97835.41;4451412;32;34155;-85
2023/10/25 07:24:42;;;;;;;9.32;6.60;;;;;;;14.12;81.97;97840.59;4437482;32;34542;-85
2023/10/25 07:27:10;;;;;;;8.05;6.35;;;;;;;13.91;81.71;97833.28;4451251;32;33839;-84
2023/10/25 07:29:39;;;;;;;8.15;6.32;;;;;;;13.83;82.17;97833.44;4451711;32;34055;-83
2023/10/25 07:32:06;;;;;;;8.95;6.20;;;;;;;14.34;79.60;97839.22;4451425;32;33689;-84
2023/10/25 07:34:34;;;;;;;9.93;6.35;;;;;;;14.72;77.71;97834.00;4451291;32;33841;-85
2023/10/25 07:37:02;;;;;;;9.75;6.32;;;;;;;14.45;79.70;97833.75;4459911;32;34487;-86
2023/10/25 07:39:30;;;;;;;8.02;5.25;;;;;;;14.19;80.58;97843.94;4464095;32;34677;-86
2023/10/25 07:41:57;;;;;;;9.77;5.43;;;;;;;14.32;80.19;97861.03;4451380;32;34020;-85
2023/10/25 07:44:25;;;;;;;7.85;5.80;;;;;;;14.69;78.91;97870.59;4437605;32;34813;-86
2023/10/25 07:46:52;;;;;;;8.63;5.57;;;;;;;14.67;79.53;97880.22;4437574;32;33316;-87
2023/10/25 07:49:20;;;;;;;7.30;4.85;;;;;;;14.76;78.29;97887.81;4434260;32;99981;-87
2023/10/25 07:51:47;;;;;;;7.68;5.50;;;;;;;14.69;78.03;97884.47;4451496;32;33832;-87
2023/10/25 07:54:15;;;;;;;8.20;4.40;;;;;;;14.81;76.89;97888.53;4451199;32;34747;-85
2023/10/25 07:56:43;;;;;;;7.97;4.18;;;;;;;14.52;78.59;97884.06;4451438;32;32653;-86
2023/10/25 07:59:13;;;;;;;8.85;4.20;;;;;;;14.77;77.35;97884.31;4437493;32;33973;-86
2023/10/25 08:01:43;;;;;;;6.55;4.15;;;;;;;14.64;78.08;97907.22;4449987;32;33872;-86
2023/10/25 08:04:10;;;;;;;6.40;3.87;;;;;;;14.89;77.05;97917.06;4450990;32;34155;-86
2023/10/25 08:06:38;;;;;;;5.82;3.80;;;;;;;14.62;78.23;97913.37;4451355;32;33362;-86
2023/10/25 08:09:06;;;;;;;5.50;3.35;;;;;;;15.17;75.79;97925.06;4451138;32;34010;-87
2023/10/25 08:11:37;;;;;;;6.35;3.50;;;;;;;14.90;76.34;97924.88;4451186;32;33730;-87
2023/10/25 08:14:05;;;;;;;6.47;3.58;;;;;;;14.96;75.65;97931.66;4451213;32;34167;-86
2023/10/25 08:16:34;;;;;;;5.90;3.65;;;;;;;15.17;75.82;97932.91;4436017;32;33305;-87
2023/10/25 08:19:02;;;;;;;4.68;3.33;;;;;;;15.45;75.09;97920.81;4451208;32;34237;-86
2023/10/25 08:21:30;;;;;;;5.75;3.55;;;;;;;15.28;74.87;97917.81;4451297;32;34139;-87
2023/10/25 08:23:57;;;;;;;6.30;3.53;;;;;;;15.61;73.56;97910.84;4450970;32;34076;-86
2023/10/25 08:26:26;;;;;;;6.50;3.50;;;;;;;15.73;73.02;97914.91;4451041;32;34376;-86
2023/10/25 08:28:54;;;;;;;5.30;3.50;;;;;;;15.43;74.82;97925.25;4451001;32;33046;-87
2023/10/25 08:31:21;;;;;;;5.57;3.25;;;;;;;15.80;73.48;97926.91;4437221;32;33709;-87
2023/10/25 08:33:49;;;;;;;6.22;3.37;;;;;;;15.49;74.53;97943.37;4451050;32;35117;-87
2023/10/25 08:36:19;;;;;;;4.62;3.10;;;;;;;15.74;72.46;97940.97;4437124;32;33389;-87
2023/10/25 08:38:46;;;;;;;5.72;2.92;;;;;;;15.69;73.10;97949.84;4450804;32;33926;-86
2023/10/25 08:41:16;;;;;;;6.22;3.08;;;;;;;15.98;72.86;97965.56;4450804;32;33317;-86
2023/10/25 08:43:44;;;;;;;6.45;3.00;;;;;;;16.01;72.84;97986.38;4451273;32;34160;-87
2023/10/25 08:46:13;;;;;;;4.40;2.85;;;;;;;15.60;72.84;97995.31;4436552;32;33321;-87
2023/10/25 08:48:42;;;;;;;5.20;3.30;;;;;;;15.50;72.96;97997.31;4450726;32;33496;-87
2023/10/25 08:51:09;;;;;;;6.37;3.15;;;;;;;15.82;71.94;98011.31;4450581;32;33762;-86
2023/10/25 08:53:38;;;;;;;6.53;3.50;;;;;;;15.45;72.88;98006.16;4436533;32;34328;-86
2023/10/25 08:56:06;;;;;;;5.80;3.20;;;;;;;15.81;71.57;98020.06;4450546;32;33713;-86
2023/10/25 08:58:33;;;;;;;6.15;3.40;;;;;;;16.11;70.17;98001.84;4436713;32;33789;-86
2023/10/25 09:01:00;;;;;;;4.87;3.22;;;;;;;15.67;71.58;98007.34;4450521;32;33818;-86
2023/10/25 09:03:31;;;;;;;5.95;3.40;;;;;;;15.60;72.43;98015.38;4450766;32;34463;-86
2023/10/25 09:06:03;;;;;;;4.62;3.20;;;;;;;15.91;71.43;98013.72;4450349;32;33133;-86
2023/10/25 09:08:32;;;;;;;5.43;3.28;;;;;;;15.70;72.18;98033.41;4450553;32;34362;-87
2023/10/25 09:11:04;;;;;;;5.47;3.05;;;;;;;15.87;72.49;98035.56;4437051;32;34186;-87
2023/10/25 09:13:33;;;;;;;4.35;3.00;;;;;;;16.09;70.90;98045.47;4423590;32;33124;-88
2023/10/25 09:16:09;;;;;;;7.47;3.55;;;;;;;15.78;71.08;98051.50;4450478;32;34143;-88
2023/10/25 09:18:38;;;;;;;5.03;3.05;;;;;;;15.77;71.95;98053.25;4436703;32;34982;-86
2023/10/25 09:21:07;;;;;;;4.90;3.00;;;;;;;16.25;70.32;98052.84;4450338;32;33482;-86
2023/10/25 09:23:40;;;;;;;6.30;2.80;;;;;;;16.54;69.67;98053.75;4450402;32;34793;-86
2023/10/25 09:26:15;;;;;;;5.35;3.50;;;;;;;16.43;69.89;98061.06;4436359;32;34820;-87
2023/10/25 09:28:47;;;;;;;5.82;3.80;;;;;;;16.38;69.66;98069.03;4452647;32;33908;-86
2023/10/25 09:31:34;;;;;;;6.00;3.95;;;;;;;16.23;69.57;98069.47;4452806;32;34120;-86
2023/10/25 09:34:08;;;;;;;5.95;3.15;;;;;;;16.38;70.18;98063.81;4452745;32;33954;-86
2023/10/25 09:36:36;;;;;;;6.95;3.72;;;;;;;16.70;68.28;98054.16;4452533;32;33318;-86
2023/10/25 09:39:05;;;;;;;6.85;4.00;;;;;;;16.41;69.77;98066.34;4438637;32;33614;-85
2023/10/25 09:41:37;;;;;;;6.07;4.28;;;;;;;15.86;70.48;98057.37;4438883;32;33742;-87
2023/10/25 09:44:11;;;;;;;5.80;3.85;;;;;;;15.96;70.72;98058.00;4452441;32;34912;-85
2023/10/25 09:46:39;;;;;;;6.97;3.60;;;;;;;16.47;69.67;98058.31;4453016;32;33215;-87
2023/10/25 09:49:08;;;;;;;8.88;4.45;;;;;;;16.14;70.69;98056.63;4438195;32;33580;-87
2023/10/25 09:51:52;;;;;;;6.25;4.10;;;;;;;16.68;69.30;98067.31;4438567;32;34669;-86
2023/10/25 09:54:24;;;;;;;5.70;3.80;;;;;;;16.50;70.39;98063.47;4438508;32;34010;-87
2023/10/25 09:56:54;;;;;;;6.60;3.75;;;;;;;16.98;69.90;98068.19;4452239;32;33096;-85
2023/10/25 09:59:23;;;;;;;5.72;3.47;;;;;;;16.65;68.36;98058.69;4452486;32;33008;-88
2023/10/25 10:01:51;;;;;;;4.45;3.08;;;;;;;16.93;68.56;98061.34;4452073;32;34252;-86
2023/10/25 10:04:33;;;;;;;8.65;3.65;;;;;;;16.81;67.68;98057.34;4437988;32;33742;-86
2023/10/25 10:07:10;;;;;;;4.82;3.00;;;;;;;17.13;67.12;98052.91;4438379;32;33595;-86
2023/10/25 10:09:43;;;;;;;4.43;2.80;;;;;;;17.07;67.11;98055.72;4438346;32;33802;-85
2023/10/25 10:12:11;;;;;;;4.57;2.60;;;;;;;17.10;65.61;98053.00;4452511;32;34466;-87
2023/10/25 10:14:42;;;;;;;4.28;2.65;;;;;;;17.11;66.75;98063.41;4452082;32;35390;-86
2023/10/25 10:17:16;;;;;;;4.65;2.70;;;;;;;17.16;65.45;98063.25;4452290;32;33517;-86
2023/10/25 10:19:46;;;;;;;3.97;2.62;;;;;;;17.43;65.74;98061.56;4438365;32;33885;-86
2023/10/25 10:22:16;;;;;;;4.05;2.35;;;;;;;17.46;64.53;98062.31;4438454;32;33662;-86
2023/10/25 10:24:58;;;;;;;5.00;2.35;;;;;;;17.38;64.23;98063.44;4438246;32;34186;-88
2023/10/25 10:27:51;;;;;;;4.30;2.12;;;;;;;17.63;64.16;98061.75;4452181;32;34277;-85
2023/10/25 10:30:37;;;;;;;6.60;2.55;;;;;;;17.71;63.52;98051.00;4446003;32;33935;-86
2023/10/25 10:33:10;;;;;;;4.35;2.40;;;;;;;18.15;61.89;98046.88;4452097;32;33766;-87
2023/10/25 10:35:47;;;;;;;5.37;2.47;;;;;;;18.21;61.78;98045.78;4438242;32;33709;-86
2023/10/25 10:38:15;;;;;;;7.28;2.60;;;;;;;18.05;61.74;98049.87;4451416;32;34368;-87
2023/10/25 10:40:49;;;;;;;3.62;1.90;;;;;;;18.17;60.92;98041.56;4452143;32;34726;-87
2023/10/25 10:43:17;;;;;;;5.12;2.25;;;;;;;18.36;60.37;98033.87;4452428;32;33881;-86
2023/10/25 10:45:44;;;;;;;5.22;2.20;;;;;;;17.91;62.22;98040.72;4452126;32;34140;-86
2023/10/25 10:48:16;;;;;;;4.40;2.05;;;;;;;17.62;62.26;98040.84;4451609;32;34110;-87
2023/10/25 10:50:44;;;;;;;4.57;2.10;;;;;;;17.85;62.64;98045.34;4452024;32;33796;-86
2023/10/25 10:53:11;;;;;;;4.07;2.10;;;;;;;18.20;61.54;98038.84;4452020;32;34196;-85
2023/10/25 10:55:40;;;;;;;4.40;2.25;;;;;;;17.98;60.92;98028.25;4451935;32;34048;-87
2023/10/25 10:58:08;;;;;;;3.60;1.92;;;;;;;17.74;60.26;98035.19;4437902;32;33985;-86
2023/10/25 11:00:36;;;;;;;4.72;1.92;;;;;;;17.88;60.39;98027.72;4451983;32;34301;-87
2023/10/25 11:03:03;;;;;;;5.80;2.28;;;;;;;17.52;61.49;98029.78;4451806;32;34153;-86
2023/10/25 11:05:37;;;;;;;3.53;2.10;;;;;;;17.40;61.99;98024.97;4451980;32;33307;-85
2023/10/25 11:08:10;;;;;;;4.90;2.40;;;;;;;17.46;61.74;98024.75;4452211;32;33738;-86
2023/10/25 11:10:38;;;;;;;5.30;2.28;;;;;;;17.78;61.19;98021.09;4452131;32;33286;-86
2023/10/25 11:13:09;;;;;;;2.87;1.92;;;;;;;18.20;59.42;98025.72;4438094;32;33879;-85
2023/10/25 11:15:38;;;;;;;3.95;2.08;;;;;;;17.77;61.22;98024.63;4451657;32;33893;-85
2023/10/25 11:18:08;;;;;;;3.37;2.00;;;;;;;18.14;60.48;98023.31;4451845;32;33635;-86
2023/10/25 11:20:38;;;;;;;3.70;1.60;;;;;;;18.06;58.55;98007.00;4437923;32;34025;-86
2023/10/25 11:23:06;;;;;;;3.80;1.80;;;;;;;17.91;59.33;98011.87;4451782;32;33812;-87
2023/10/25 11:25:34;;;;;;;3.22;1.87;;;;;;;17.88;59.02;98009.38;4451922;32;34028;-85
2023/10/25 11:28:04;;;;;;;3.92;1.90;;;;;;;18.02;58.97;98018.50;4451709;32;33563;-86
2023/10/25 11:30:34;;;;;;;3.17;1.73;;;;;;;18.16;58.74;98011.00;4437529;32;33180;-86
2023/10/25 11:33:03;;;;;;;3.15;1.80;;;;;;;17.66;58.98;98011.84;4452081;32;34764;-86
2023/10/25 11:35:34;;;;;;;4.22;1.60;;;;;;;17.48;58.95;98023.81;4437692;32;34199;-86